PWSweather.com
Personal Weather Stations
Station Observations
CEDARGROVEHUB
Johnstown, Edwardsburghcardinal, ON K0E1T1

JohnstownEdwardsburghcardinal, ON K0E1T1

Lat: 44.742023, Lon: -75.5236

Elevation: 294

Station Type: ACURITE 5-in-1

https://webcam.io/webcams/W9RaVM

Latest ConditionsUpdated 1:30:00 PM EDT Wednesday, Jul 17, 2019
Currently Today's Max Today's Min Today's Average
Temperature 76.6°F24.8°C 78.6°F25.9°C 71.2°F21.8°C 74.2°F23.4°C
Dew Point 74.4°F23.6°C 76.1°F24.5°C 69.9°F21.1°C 72.2°F22.3°C
Winds 9.2 mph S14.8 kmh S 13.8 mph -22.2 kmh - - 9.1 mph 14.6 kmh
Wind Gusts 4.6 mph7.4 kmh 6.9 mph11.1 kmh - -
Humidity 93% 96% 91% 94%
Pressure 29.86 in1011.2 mb 29.86 in1011.2 mb 29.82 in1009.8 mb -
Hour Temp Dew Point Humidity Winds Wind Gusts Pressure Precip Precip Rate Daily Precip Total
01:30 PM 76.6°F24.8°C 74.4°F23.6°C 93% 9.2 mph S14.8 kmh S 4.6 mph7.4 kmh 29.86 in1011.2 mb - 0.00 in0.0 mm 0.00 in0.0 mm
01:25 PM 77.2°F25.1°C 75.0°F23.9°C 93% 11.5 mph S18.5 kmh S 5.8 mph9.3 kmh 29.86 in1011.2 mb - 0.00 in0.0 mm 0.00 in0.0 mm
01:20 PM 77.5°F25.3°C 75.3°F24.1°C 93% 9.2 mph S14.8 kmh S 4.6 mph7.4 kmh 29.86 in1011.2 mb - 0.00 in0.0 mm 0.00 in0.0 mm
01:15 PM 78.0°F25.6°C 75.8°F24.3°C 93% 9.2 mph S14.8 kmh S 4.6 mph7.4 kmh 29.86 in1011.2 mb - 0.00 in0.0 mm 0.00 in0.0 mm
01:10 PM 77.9°F25.5°C 75.7°F24.3°C 93% 8.1 mph SSW13.0 kmh SSW 3.5 mph5.6 kmh 29.86 in1011.2 mb - 0.00 in0.0 mm 0.00 in0.0 mm
01:00 PM 78.6°F25.9°C 76.1°F24.5°C 92% 8.1 mph S13.0 kmh S 3.5 mph5.6 kmh 29.85 in1010.8 mb - 0.00 in0.0 mm 0.00 in0.0 mm
12:55 PM 78.6°F25.9°C 76.1°F24.5°C 92% 8.1 mph SSW13.0 kmh SSW 3.5 mph5.6 kmh 29.85 in1010.8 mb - 0.00 in0.0 mm 0.00 in0.0 mm
12:50 PM 78.2°F25.7°C 75.7°F24.3°C 92% 9.2 mph SSW14.8 kmh SSW 4.6 mph7.4 kmh 29.85 in1010.8 mb - 0.00 in0.0 mm 0.00 in0.0 mm
12:45 PM 77.7°F25.4°C 75.5°F24.2°C 93% 8.1 mph S13.0 kmh S 3.5 mph5.6 kmh 29.85 in1010.8 mb - 0.00 in0.0 mm 0.00 in0.0 mm
12:40 PM 77.7°F25.4°C 75.5°F24.2°C 93% 6.9 mph S11.1 kmh S 2.3 mph3.7 kmh 29.85 in1010.8 mb - 0.00 in0.0 mm 0.00 in0.0 mm
12:35 PM 77.7°F25.4°C 75.5°F24.2°C 93% 8.1 mph SSW13.0 kmh SSW 4.6 mph7.4 kmh 29.85 in1010.8 mb - 0.00 in0.0 mm 0.00 in0.0 mm
12:30 PM 78.3°F25.7°C 75.8°F24.3°C 92% 8.1 mph SW13.0 kmh SW 3.5 mph5.6 kmh 29.85 in1010.8 mb - 0.00 in0.0 mm 0.00 in0.0 mm
12:25 PM 77.9°F25.5°C 75.7°F24.3°C 93% 8.1 mph S13.0 kmh S 3.5 mph5.6 kmh 29.85 in1010.8 mb - 0.00 in0.0 mm 0.00 in0.0 mm
12:20 PM 77.5°F25.3°C 75.3°F24.1°C 93% 9.2 mph S14.8 kmh S 4.6 mph7.4 kmh 29.85 in1010.8 mb - 0.00 in0.0 mm 0.00 in0.0 mm
12:15 PM 77.5°F25.3°C 75.3°F24.1°C 93% 8.1 mph SW13.0 kmh SW 2.3 mph3.7 kmh 29.85 in1010.8 mb - 0.00 in0.0 mm 0.00 in0.0 mm
12:10 PM 77.4°F25.2°C 75.2°F24.0°C 93% 8.1 mph SSW13.0 kmh SSW 3.5 mph5.6 kmh 29.85 in1010.8 mb - 0.00 in0.0 mm 0.00 in0.0 mm
12:00 PM 77.0°F25.0°C 74.8°F23.8°C 93% 5.8 mph S9.3 kmh S 3.5 mph5.6 kmh 29.84 in1010.5 mb - 0.00 in0.0 mm 0.00 in0.0 mm
11:55 AM 77.0°F25.0°C 74.8°F23.8°C 93% 6.9 mph SSW11.1 kmh SSW 3.5 mph5.6 kmh 29.84 in1010.5 mb - 0.00 in0.0 mm 0.00 in0.0 mm
11:50 AM 77.0°F25.0°C 74.8°F23.8°C 93% 6.9 mph SSW11.1 kmh SSW 2.3 mph3.7 kmh 29.85 in1010.8 mb - 0.00 in0.0 mm 0.00 in0.0 mm
11:45 AM 77.2°F25.1°C 75.0°F23.9°C 93% 8.1 mph SSW13.0 kmh SSW 3.5 mph5.6 kmh 29.85 in1010.8 mb - 0.00 in0.0 mm 0.00 in0.0 mm
11:40 AM 77.0°F25.0°C 74.8°F23.8°C 93% 8.1 mph SW13.0 kmh SW 3.5 mph5.6 kmh 29.85 in1010.8 mb - 0.00 in0.0 mm 0.00 in0.0 mm
11:35 AM 76.6°F24.8°C 74.7°F23.7°C 94% 8.1 mph SW13.0 kmh SW 3.5 mph5.6 kmh 29.85 in1010.8 mb - 0.00 in0.0 mm 0.00 in0.0 mm
11:30 AM 76.6°F24.8°C 74.7°F23.7°C 94% 9.2 mph S14.8 kmh S 4.6 mph7.4 kmh 29.85 in1010.8 mb - 0.00 in0.0 mm 0.00 in0.0 mm
11:25 AM 76.6°F24.8°C 74.7°F23.7°C 94% 9.2 mph S14.8 kmh S 4.6 mph7.4 kmh 29.85 in1010.8 mb - 0.00 in0.0 mm 0.00 in0.0 mm
11:20 AM 76.6°F24.8°C 74.7°F23.7°C 94% 9.2 mph S14.8 kmh S 4.6 mph7.4 kmh 29.85 in1010.8 mb - 0.00 in0.0 mm 0.00 in0.0 mm
11:15 AM 76.6°F24.8°C 74.7°F23.7°C 94% 8.1 mph S13.0 kmh S 4.6 mph7.4 kmh 29.85 in1010.8 mb - 0.00 in0.0 mm 0.00 in0.0 mm
11:10 AM 76.5°F24.7°C 74.7°F23.7°C 94% 10.4 mph SSW16.7 kmh SSW 4.6 mph7.4 kmh 29.85 in1010.8 mb - 0.00 in0.0 mm 0.00 in0.0 mm
11:00 AM 75.6°F24.2°C 73.8°F23.2°C 94% 8.1 mph S13.0 kmh S 3.5 mph5.6 kmh 29.85 in1010.8 mb - 0.00 in0.0 mm 0.00 in0.0 mm
10:55 AM 75.6°F24.2°C 73.8°F23.2°C 94% 8.1 mph S13.0 kmh S 3.5 mph5.6 kmh 29.85 in1010.8 mb - 0.00 in0.0 mm 0.00 in0.0 mm
10:50 AM 75.6°F24.2°C 73.8°F23.2°C 94% 5.8 mph SSW9.3 kmh SSW 2.3 mph3.7 kmh 29.86 in1011.2 mb - 0.00 in0.0 mm 0.00 in0.0 mm
10:45 AM 75.7°F24.3°C 73.8°F23.2°C 94% 6.9 mph S11.1 kmh S 3.5 mph5.6 kmh 29.86 in1011.2 mb - 0.00 in0.0 mm 0.00 in0.0 mm
10:40 AM 75.7°F24.3°C 73.8°F23.2°C 94% 8.1 mph SSW13.0 kmh SSW 3.5 mph5.6 kmh 29.86 in1011.2 mb - 0.00 in0.0 mm 0.00 in0.0 mm
10:35 AM 75.6°F24.2°C 73.8°F23.2°C 94% 5.8 mph SW9.3 kmh SW 2.3 mph3.7 kmh 29.86 in1011.2 mb - 0.00 in0.0 mm 0.00 in0.0 mm
10:30 AM 75.6°F24.2°C 73.8°F23.2°C 94% 4.6 mph S7.4 kmh S 3.5 mph5.6 kmh 29.86 in1011.2 mb - 0.00 in0.0 mm 0.00 in0.0 mm
10:25 AM 75.6°F24.2°C 73.8°F23.2°C 94% 6.9 mph SSW11.1 kmh SSW 3.5 mph5.6 kmh 29.86 in1011.2 mb - 0.00 in0.0 mm 0.00 in0.0 mm
10:20 AM 75.6°F24.2°C 73.8°F23.2°C 94% 6.9 mph S11.1 kmh S 3.5 mph5.6 kmh 29.86 in1011.2 mb - 0.00 in0.0 mm 0.00 in0.0 mm
10:15 AM 75.4°F24.1°C 73.6°F23.1°C 94% 10.4 mph S16.7 kmh S 4.6 mph7.4 kmh 29.86 in1011.2 mb - 0.00 in0.0 mm 0.00 in0.0 mm
10:10 AM 75.4°F24.1°C 73.6°F23.1°C 94% 8.1 mph SW13.0 kmh SW 3.5 mph5.6 kmh 29.86 in1011.2 mb - 0.00 in0.0 mm 0.00 in0.0 mm
10:00 AM 75.6°F24.2°C 73.8°F23.2°C 94% 8.1 mph S13.0 kmh S 3.5 mph5.6 kmh 29.86 in1011.2 mb - 0.00 in0.0 mm 0.00 in0.0 mm
09:55 AM 75.6°F24.2°C 73.8°F23.2°C 94% 9.2 mph S14.8 kmh S 4.6 mph7.4 kmh 29.86 in1011.2 mb - 0.00 in0.0 mm 0.00 in0.0 mm
09:50 AM 75.6°F24.2°C 73.8°F23.2°C 94% 8.1 mph S13.0 kmh S 4.6 mph7.4 kmh 29.86 in1011.2 mb - 0.00 in0.0 mm 0.00 in0.0 mm
09:45 AM 75.6°F24.2°C 73.8°F23.2°C 94% 8.1 mph SSW13.0 kmh SSW 3.5 mph5.6 kmh 29.86 in1011.2 mb - 0.00 in0.0 mm 0.00 in0.0 mm
09:40 AM 75.6°F24.2°C 73.8°F23.2°C 94% 9.2 mph SW14.8 kmh SW 3.5 mph5.6 kmh 29.86 in1011.2 mb - 0.00 in0.0 mm 0.00 in0.0 mm
09:35 AM 75.6°F24.2°C 73.8°F23.2°C 94% 8.1 mph SSW13.0 kmh SSW 3.5 mph5.6 kmh 29.86 in1011.2 mb - 0.00 in0.0 mm 0.00 in0.0 mm
09:30 AM 75.6°F24.2°C 73.8°F23.2°C 94% 9.2 mph SSW14.8 kmh SSW 3.5 mph5.6 kmh 29.86 in1011.2 mb - 0.00 in0.0 mm 0.00 in0.0 mm
09:25 AM 75.6°F24.2°C 73.8°F23.2°C 94% 9.2 mph SSW14.8 kmh SSW 4.6 mph7.4 kmh 29.86 in1011.2 mb - 0.00 in0.0 mm 0.00 in0.0 mm
09:20 AM 75.7°F24.3°C 73.8°F23.2°C 94% 9.2 mph SSW14.8 kmh SSW 4.6 mph7.4 kmh 29.86 in1011.2 mb - 0.00 in0.0 mm 0.00 in0.0 mm
09:15 AM 75.7°F24.3°C 73.8°F23.2°C 94% 8.1 mph SW13.0 kmh SW 4.6 mph7.4 kmh 29.86 in1011.2 mb - 0.00 in0.0 mm 0.00 in0.0 mm
09:10 AM 75.6°F24.2°C 73.8°F23.2°C 94% 9.2 mph SSW14.8 kmh SSW 4.6 mph7.4 kmh 29.86 in1011.2 mb - 0.00 in0.0 mm 0.00 in0.0 mm
09:00 AM 75.4°F24.1°C 73.6°F23.1°C 94% 9.2 mph SW14.8 kmh SW 4.6 mph7.4 kmh 29.86 in1011.2 mb - 0.00 in0.0 mm 0.00 in0.0 mm
08:55 AM 75.2°F24.0°C 73.4°F23.0°C 94% 8.1 mph S13.0 kmh S 3.5 mph5.6 kmh 29.86 in1011.2 mb - 0.00 in0.0 mm 0.00 in0.0 mm
08:50 AM 75.0°F23.9°C 73.2°F22.9°C 94% 8.1 mph S13.0 kmh S 4.6 mph7.4 kmh 29.86 in1011.2 mb - 0.00 in0.0 mm 0.00 in0.0 mm
08:45 AM 74.8°F23.8°C 72.9°F22.7°C 94% 5.8 mph SSW9.3 kmh SSW 2.3 mph3.7 kmh 29.85 in1010.8 mb - 0.00 in0.0 mm 0.00 in0.0 mm
08:40 AM 74.3°F23.5°C 72.8°F22.7°C 95% 8.1 mph SW13.0 kmh SW 3.5 mph5.6 kmh 29.85 in1010.8 mb - 0.00 in0.0 mm 0.00 in0.0 mm
08:35 AM 73.8°F23.2°C 72.3°F22.4°C 95% 5.8 mph SW9.3 kmh SW 2.3 mph3.7 kmh 29.85 in1010.8 mb - 0.00 in0.0 mm 0.00 in0.0 mm
08:30 AM 73.6°F23.1°C 72.1°F22.3°C 95% 6.9 mph SSW11.1 kmh SSW 3.5 mph5.6 kmh 29.85 in1010.8 mb - 0.00 in0.0 mm 0.00 in0.0 mm
08:25 AM 73.2°F22.9°C 71.7°F22.1°C 95% 6.9 mph S11.1 kmh S 3.5 mph5.6 kmh 29.86 in1011.2 mb - 0.00 in0.0 mm 0.00 in0.0 mm
08:20 AM 73.0°F22.8°C 71.8°F22.1°C 96% 8.1 mph S13.0 kmh S 3.5 mph5.6 kmh 29.86 in1011.2 mb - 0.00 in0.0 mm 0.00 in0.0 mm
08:15 AM 72.7°F22.6°C 71.5°F21.9°C 96% 8.1 mph S13.0 kmh S 3.5 mph5.6 kmh 29.86 in1011.2 mb - 0.00 in0.0 mm 0.00 in0.0 mm
08:10 AM 72.5°F22.5°C 71.3°F21.8°C 96% 6.9 mph S11.1 kmh S 3.5 mph5.6 kmh 29.85 in1010.8 mb - 0.00 in0.0 mm 0.00 in0.0 mm
08:00 AM 72.1°F22.3°C 70.9°F21.6°C 96% 6.9 mph S11.1 kmh S 3.5 mph5.6 kmh 29.85 in1010.8 mb - 0.00 in0.0 mm 0.00 in0.0 mm
07:55 AM 72.1°F22.3°C 70.9°F21.6°C 96% 6.9 mph SSW11.1 kmh SSW 3.5 mph5.6 kmh 29.85 in1010.8 mb - 0.00 in0.0 mm 0.00 in0.0 mm
07:50 AM 72.1°F22.3°C 70.9°F21.6°C 96% 6.9 mph SW11.1 kmh SW 3.5 mph5.6 kmh 29.85 in1010.8 mb - 0.00 in0.0 mm 0.00 in0.0 mm
07:45 AM 72.1°F22.3°C 70.9°F21.6°C 96% 6.9 mph SW11.1 kmh SW 3.5 mph5.6 kmh 29.85 in1010.8 mb - 0.00 in0.0 mm 0.00 in0.0 mm
07:40 AM 72.0°F22.2°C 70.8°F21.6°C 96% 8.1 mph SW13.0 kmh SW 3.5 mph5.6 kmh 29.85 in1010.8 mb - 0.00 in0.0 mm 0.00 in0.0 mm
07:35 AM 72.0°F22.2°C 70.8°F21.6°C 96% 8.1 mph S13.0 kmh S 3.5 mph5.6 kmh 29.85 in1010.8 mb - 0.00 in0.0 mm 0.00 in0.0 mm
07:30 AM 71.8°F22.1°C 70.6°F21.4°C 96% 8.1 mph S13.0 kmh S 3.5 mph5.6 kmh 29.85 in1010.8 mb - 0.00 in0.0 mm 0.00 in0.0 mm
07:25 AM 71.8°F22.1°C 70.6°F21.4°C 96% 6.9 mph S11.1 kmh S 3.5 mph5.6 kmh 29.85 in1010.8 mb - 0.00 in0.0 mm 0.00 in0.0 mm
07:20 AM 71.6°F22.0°C 70.4°F21.3°C 96% 8.1 mph SW13.0 kmh SW 3.5 mph5.6 kmh 29.85 in1010.8 mb - 0.00 in0.0 mm 0.00 in0.0 mm
07:15 AM 71.6°F22.0°C 70.4°F21.3°C 96% 8.1 mph SSW13.0 kmh SSW 3.5 mph5.6 kmh 29.85 in1010.8 mb - 0.00 in0.0 mm 0.00 in0.0 mm
07:10 AM 71.5°F21.9°C 70.3°F21.3°C 96% 6.9 mph SW11.1 kmh SW 3.5 mph5.6 kmh 29.85 in1010.8 mb - 0.00 in0.0 mm 0.00 in0.0 mm
07:00 AM 71.4°F21.9°C 70.2°F21.2°C 96% 8.1 mph S13.0 kmh S 3.5 mph5.6 kmh 29.84 in1010.5 mb - 0.00 in0.0 mm 0.00 in0.0 mm
06:55 AM 71.4°F21.9°C 70.2°F21.2°C 96% 6.9 mph S11.1 kmh S 3.5 mph5.6 kmh 29.84 in1010.5 mb - 0.00 in0.0 mm 0.00 in0.0 mm
06:50 AM 71.2°F21.8°C 70.0°F21.1°C 96% 6.9 mph SSW11.1 kmh SSW 3.5 mph5.6 kmh 29.85 in1010.8 mb - 0.00 in0.0 mm 0.00 in0.0 mm
06:45 AM 71.2°F21.8°C 70.0°F21.1°C 96% 9.2 mph S14.8 kmh S 3.5 mph5.6 kmh 29.85 in1010.8 mb - 0.00 in0.0 mm 0.00 in0.0 mm
06:40 AM 71.2°F21.8°C 70.0°F21.1°C 96% 9.2 mph SSW14.8 kmh SSW 4.6 mph7.4 kmh 29.85 in1010.8 mb - 0.00 in0.0 mm 0.00 in0.0 mm
06:35 AM 71.2°F21.8°C 70.0°F21.1°C 96% 9.2 mph S14.8 kmh S 4.6 mph7.4 kmh 29.84 in1010.5 mb - 0.00 in0.0 mm 0.00 in0.0 mm
06:30 AM 71.2°F21.8°C 70.0°F21.1°C 96% 8.1 mph SSW13.0 kmh SSW 3.5 mph5.6 kmh 29.84 in1010.5 mb - 0.00 in0.0 mm 0.00 in0.0 mm
06:25 AM 71.2°F21.8°C 70.0°F21.1°C 96% 8.1 mph SSW13.0 kmh SSW 4.6 mph7.4 kmh 29.84 in1010.5 mb - 0.00 in0.0 mm 0.00 in0.0 mm
06:20 AM 71.2°F21.8°C 70.0°F21.1°C 96% 8.1 mph S13.0 kmh S 3.5 mph5.6 kmh 29.84 in1010.5 mb - 0.00 in0.0 mm 0.00 in0.0 mm
06:15 AM 71.2°F21.8°C 70.0°F21.1°C 96% 8.1 mph SSW13.0 kmh SSW 3.5 mph5.6 kmh 29.84 in1010.5 mb - 0.00 in0.0 mm 0.00 in0.0 mm
06:10 AM 71.2°F21.8°C 70.0°F21.1°C 96% 8.1 mph S13.0 kmh S 3.5 mph5.6 kmh 29.84 in1010.5 mb - 0.00 in0.0 mm 0.00 in0.0 mm
06:00 AM 71.2°F21.8°C 70.0°F21.1°C 96% 9.2 mph SSW14.8 kmh SSW 4.6 mph7.4 kmh 29.84 in1010.5 mb - 0.00 in0.0 mm 0.00 in0.0 mm
05:55 AM 71.2°F21.8°C 70.0°F21.1°C 96% 8.1 mph S13.0 kmh S 3.5 mph5.6 kmh 29.84 in1010.5 mb - 0.00 in0.0 mm 0.00 in0.0 mm
05:50 AM 71.2°F21.8°C 70.0°F21.1°C 96% 9.2 mph S14.8 kmh S 4.6 mph7.4 kmh 29.84 in1010.5 mb - 0.00 in0.0 mm 0.00 in0.0 mm
05:45 AM 71.4°F21.9°C 70.2°F21.2°C 96% 9.2 mph SSW14.8 kmh SSW 4.6 mph7.4 kmh 29.84 in1010.5 mb - 0.00 in0.0 mm 0.00 in0.0 mm
05:40 AM 71.4°F21.9°C 70.2°F21.2°C 96% 8.1 mph S13.0 kmh S 4.6 mph7.4 kmh 29.84 in1010.5 mb - 0.00 in0.0 mm 0.00 in0.0 mm
05:35 AM 71.4°F21.9°C 70.2°F21.2°C 96% 10.4 mph SW16.7 kmh SW 4.6 mph7.4 kmh 29.84 in1010.5 mb - 0.00 in0.0 mm 0.00 in0.0 mm
05:30 AM 71.4°F21.9°C 69.9°F21.1°C 95% 9.2 mph S14.8 kmh S 4.6 mph7.4 kmh 29.84 in1010.5 mb - 0.00 in0.0 mm 0.00 in0.0 mm
05:25 AM 71.4°F21.9°C 69.9°F21.1°C 95% 10.4 mph SSW16.7 kmh SSW 4.6 mph7.4 kmh 29.83 in1010.2 mb - 0.00 in0.0 mm 0.00 in0.0 mm
05:20 AM 71.4°F21.9°C 69.9°F21.1°C 95% 10.4 mph SSW16.7 kmh SSW 4.6 mph7.4 kmh 29.83 in1010.2 mb - 0.00 in0.0 mm 0.00 in0.0 mm
05:15 AM 71.4°F21.9°C 69.9°F21.1°C 95% 10.4 mph S16.7 kmh S 4.6 mph7.4 kmh 29.83 in1010.2 mb - 0.00 in0.0 mm 0.00 in0.0 mm
05:10 AM 71.4°F21.9°C 69.9°F21.1°C 95% 9.2 mph SW14.8 kmh SW 4.6 mph7.4 kmh 29.83 in1010.2 mb - 0.00 in0.0 mm 0.00 in0.0 mm
05:00 AM 71.6°F22.0°C 70.1°F21.2°C 95% 10.4 mph SSW16.7 kmh SSW 4.6 mph7.4 kmh 29.83 in1010.2 mb - 0.00 in0.0 mm 0.00 in0.0 mm
04:55 AM 71.6°F22.0°C 70.1°F21.2°C 95% 10.4 mph S16.7 kmh S 4.6 mph7.4 kmh 29.83 in1010.2 mb - 0.00 in0.0 mm 0.00 in0.0 mm
04:50 AM 71.8°F22.1°C 70.3°F21.3°C 95% 9.2 mph SW14.8 kmh SW 4.6 mph7.4 kmh 29.83 in1010.2 mb - 0.00 in0.0 mm 0.00 in0.0 mm
04:45 AM 71.8°F22.1°C 70.3°F21.3°C 95% 10.4 mph S16.7 kmh S 4.6 mph7.4 kmh 29.83 in1010.2 mb - 0.00 in0.0 mm 0.00 in0.0 mm
04:40 AM 72.0°F22.2°C 70.2°F21.2°C 94% 10.4 mph SSW16.7 kmh SSW 4.6 mph7.4 kmh 29.83 in1010.2 mb - 0.00 in0.0 mm 0.00 in0.0 mm
04:35 AM 72.1°F22.3°C 70.3°F21.3°C 94% 10.4 mph SSW16.7 kmh SSW 4.6 mph7.4 kmh 29.83 in1010.2 mb - 0.00 in0.0 mm 0.00 in0.0 mm
04:30 AM 72.3°F22.4°C 70.5°F21.4°C 94% 10.4 mph S16.7 kmh S 5.8 mph9.3 kmh 29.83 in1010.2 mb - 0.00 in0.0 mm 0.00 in0.0 mm
04:25 AM 72.5°F22.5°C 70.4°F21.3°C 93% 10.4 mph SSW16.7 kmh SSW 5.8 mph9.3 kmh 29.82 in1009.8 mb - 0.00 in0.0 mm 0.00 in0.0 mm
04:20 AM 72.7°F22.6°C 70.6°F21.4°C 93% 10.4 mph SSW16.7 kmh SSW 5.8 mph9.3 kmh 29.82 in1009.8 mb - 0.00 in0.0 mm 0.00 in0.0 mm
04:15 AM 72.7°F22.6°C 70.6°F21.4°C 93% 11.5 mph S18.5 kmh S 5.8 mph9.3 kmh 29.82 in1009.8 mb - 0.00 in0.0 mm 0.00 in0.0 mm
04:10 AM 72.7°F22.6°C 70.6°F21.4°C 93% 10.4 mph S16.7 kmh S 4.6 mph7.4 kmh 29.82 in1009.8 mb - 0.00 in0.0 mm 0.00 in0.0 mm
04:00 AM 72.7°F22.6°C 70.6°F21.4°C 93% 9.2 mph SW14.8 kmh SW 4.6 mph7.4 kmh 29.82 in1009.8 mb - 0.00 in0.0 mm 0.00 in0.0 mm
03:55 AM 72.9°F22.7°C 70.8°F21.6°C 93% 8.1 mph S13.0 kmh S 4.6 mph7.4 kmh 29.82 in1009.8 mb - 0.00 in0.0 mm 0.00 in0.0 mm
03:50 AM 72.9°F22.7°C 70.8°F21.6°C 93% 9.2 mph SSW14.8 kmh SSW 4.6 mph7.4 kmh 29.82 in1009.8 mb - 0.00 in0.0 mm 0.00 in0.0 mm
03:45 AM 72.9°F22.7°C 70.8°F21.6°C 93% 8.1 mph SW13.0 kmh SW 3.5 mph5.6 kmh 29.83 in1010.2 mb - 0.00 in0.0 mm 0.00 in0.0 mm
03:40 AM 72.9°F22.7°C 70.8°F21.6°C 93% 9.2 mph S14.8 kmh S 4.6 mph7.4 kmh 29.83 in1010.2 mb - 0.00 in0.0 mm 0.00 in0.0 mm
03:35 AM 73.0°F22.8°C 70.9°F21.6°C 93% 9.2 mph SSW14.8 kmh SSW 4.6 mph7.4 kmh 29.82 in1009.8 mb - 0.00 in0.0 mm 0.00 in0.0 mm
03:30 AM 73.0°F22.8°C 70.9°F21.6°C 93% 8.1 mph SW13.0 kmh SW 3.5 mph5.6 kmh 29.82 in1009.8 mb - 0.00 in0.0 mm 0.00 in0.0 mm
03:25 AM 73.0°F22.8°C 70.9°F21.6°C 93% 11.5 mph SSW18.5 kmh SSW 5.8 mph9.3 kmh 29.82 in1009.8 mb - 0.00 in0.0 mm 0.00 in0.0 mm
03:20 AM 73.2°F22.9°C 71.1°F21.7°C 93% 10.4 mph SSW16.7 kmh SSW 4.6 mph7.4 kmh 29.82 in1009.8 mb - 0.00 in0.0 mm 0.00 in0.0 mm
03:15 AM 73.3°F22.9°C 71.2°F21.8°C 93% 10.4 mph SSW16.7 kmh SSW 4.6 mph7.4 kmh 29.82 in1009.8 mb - 0.00 in0.0 mm 0.00 in0.0 mm
03:10 AM 73.4°F23.0°C 70.9°F21.6°C 92% 10.4 mph SW16.7 kmh SW 5.8 mph9.3 kmh 29.83 in1010.2 mb - 0.00 in0.0 mm 0.00 in0.0 mm
03:00 AM 73.8°F23.2°C 71.3°F21.8°C 92% 10.4 mph S16.7 kmh S 4.6 mph7.4 kmh 29.83 in1010.2 mb - 0.00 in0.0 mm 0.00 in0.0 mm
02:55 AM 73.8°F23.2°C 71.3°F21.8°C 92% 10.4 mph SSW16.7 kmh SSW 4.6 mph7.4 kmh 29.83 in1010.2 mb - 0.00 in0.0 mm 0.00 in0.0 mm
02:50 AM 73.9°F23.3°C 71.4°F21.9°C 92% 12.7 mph SSW20.4 kmh SSW 5.8 mph9.3 kmh 29.83 in1010.2 mb - 0.00 in0.0 mm 0.00 in0.0 mm
02:45 AM 73.9°F23.3°C 71.4°F21.9°C 92% 10.4 mph SW16.7 kmh SW 5.8 mph9.3 kmh 29.83 in1010.2 mb - 0.00 in0.0 mm 0.00 in0.0 mm
02:40 AM 73.9°F23.3°C 71.4°F21.9°C 92% 10.4 mph SW16.7 kmh SW 5.8 mph9.3 kmh 29.83 in1010.2 mb - 0.00 in0.0 mm 0.00 in0.0 mm
02:35 AM 73.9°F23.3°C 71.4°F21.9°C 92% 11.5 mph S18.5 kmh S 5.8 mph9.3 kmh 29.83 in1010.2 mb - 0.00 in0.0 mm 0.00 in0.0 mm
02:30 AM 73.9°F23.3°C 71.4°F21.9°C 92% 10.4 mph SW16.7 kmh SW 4.6 mph7.4 kmh 29.83 in1010.2 mb - 0.00 in0.0 mm 0.00 in0.0 mm
02:25 AM 74.1°F23.4°C 71.6°F22.0°C 92% 10.4 mph S16.7 kmh S 4.6 mph7.4 kmh 29.84 in1010.5 mb - 0.00 in0.0 mm 0.00 in0.0 mm
02:20 AM 74.3°F23.5°C 71.8°F22.1°C 92% 9.2 mph SSW14.8 kmh SSW 4.6 mph7.4 kmh 29.84 in1010.5 mb - 0.00 in0.0 mm 0.00 in0.0 mm
02:15 AM 74.3°F23.5°C 71.5°F21.9°C 91% 10.4 mph SW16.7 kmh SW 4.6 mph7.4 kmh 29.84 in1010.5 mb - 0.00 in0.0 mm 0.00 in0.0 mm
02:10 AM 74.5°F23.6°C 71.7°F22.1°C 91% 10.4 mph SSW16.7 kmh SSW 4.6 mph7.4 kmh 29.84 in1010.5 mb - 0.00 in0.0 mm 0.00 in0.0 mm
02:00 AM 74.7°F23.7°C 71.9°F22.2°C 91% 11.5 mph SW18.5 kmh SW 4.6 mph7.4 kmh 29.84 in1010.5 mb - 0.00 in0.0 mm 0.00 in0.0 mm
01:55 AM 74.7°F23.7°C 71.9°F22.2°C 91% 10.4 mph SSW16.7 kmh SSW 5.8 mph9.3 kmh 29.84 in1010.5 mb - 0.00 in0.0 mm 0.00 in0.0 mm
01:50 AM 74.7°F23.7°C 71.9°F22.2°C 91% 12.7 mph SSW20.4 kmh SSW 5.8 mph9.3 kmh 29.84 in1010.5 mb - 0.00 in0.0 mm 0.00 in0.0 mm
01:45 AM 74.7°F23.7°C 71.9°F22.2°C 91% 12.7 mph SW20.4 kmh SW 5.8 mph9.3 kmh 29.84 in1010.5 mb - 0.00 in0.0 mm 0.00 in0.0 mm
01:40 AM 74.7°F23.7°C 71.9°F22.2°C 91% 12.7 mph S20.4 kmh S 5.8 mph9.3 kmh 29.84 in1010.5 mb - 0.00 in0.0 mm 0.00 in0.0 mm
01:35 AM 74.7°F23.7°C 71.9°F22.2°C 91% 12.7 mph SW20.4 kmh SW 5.8 mph9.3 kmh 29.84 in1010.5 mb - 0.00 in0.0 mm 0.00 in0.0 mm
01:30 AM 74.8°F23.8°C 72.0°F22.2°C 91% 11.5 mph SSW18.5 kmh SSW 5.8 mph9.3 kmh 29.84 in1010.5 mb - 0.00 in0.0 mm 0.00 in0.0 mm
01:25 AM 74.8°F23.8°C 72.0°F22.2°C 91% 11.5 mph SSW18.5 kmh SSW 5.8 mph9.3 kmh 29.85 in1010.8 mb - 0.00 in0.0 mm 0.00 in0.0 mm
01:20 AM 74.8°F23.8°C 72.0°F22.2°C 91% 11.5 mph SW18.5 kmh SW 5.8 mph9.3 kmh 29.85 in1010.8 mb - 0.00 in0.0 mm 0.00 in0.0 mm
01:15 AM 74.8°F23.8°C 72.0°F22.2°C 91% 9.2 mph SSW14.8 kmh SSW 4.6 mph7.4 kmh 29.85 in1010.8 mb - 0.00 in0.0 mm 0.00 in0.0 mm
01:10 AM 74.8°F23.8°C 72.0°F22.2°C 91% 9.2 mph SSW14.8 kmh SSW 4.6 mph7.4 kmh 29.85 in1010.8 mb - 0.00 in0.0 mm 0.00 in0.0 mm
01:00 AM 74.7°F23.7°C 71.9°F22.2°C 91% 10.4 mph SW16.7 kmh SW 5.8 mph9.3 kmh 29.85 in1010.8 mb - 0.00 in0.0 mm 0.00 in0.0 mm
12:55 AM 74.7°F23.7°C 71.9°F22.2°C 91% 11.5 mph SSW18.5 kmh SSW 5.8 mph9.3 kmh 29.85 in1010.8 mb - 0.00 in0.0 mm 0.00 in0.0 mm
12:50 AM 74.7°F23.7°C 71.9°F22.2°C 91% 12.7 mph SSW20.4 kmh SSW 5.8 mph9.3 kmh 29.85 in1010.8 mb - 0.00 in0.0 mm 0.00 in0.0 mm
12:45 AM 74.7°F23.7°C 71.9°F22.2°C 91% 12.7 mph S20.4 kmh S 5.8 mph9.3 kmh 29.85 in1010.8 mb - 0.00 in0.0 mm 0.00 in0.0 mm
12:40 AM 74.7°F23.7°C 71.9°F22.2°C 91% 11.5 mph SSW18.5 kmh SSW 5.8 mph9.3 kmh 29.85 in1010.8 mb - 0.00 in0.0 mm 0.00 in0.0 mm
12:35 AM 74.5°F23.6°C 71.7°F22.1°C 91% 10.4 mph SW16.7 kmh SW 5.8 mph9.3 kmh 29.85 in1010.8 mb - 0.00 in0.0 mm 0.00 in0.0 mm
12:30 AM 74.5°F23.6°C 71.7°F22.1°C 91% 12.7 mph SSW20.4 kmh SSW 5.8 mph9.3 kmh 29.85 in1010.8 mb - 0.00 in0.0 mm 0.00 in0.0 mm
12:25 AM 74.5°F23.6°C 71.7°F22.1°C 91% 13.8 mph SW22.2 kmh SW 6.9 mph11.1 kmh 29.85 in1010.8 mb - 0.00 in0.0 mm 0.00 in0.0 mm
12:20 AM 74.5°F23.6°C 71.7°F22.1°C 91% 11.5 mph S18.5 kmh S 5.8 mph9.3 kmh 29.85 in1010.8 mb - 0.00 in0.0 mm 0.00 in0.0 mm
12:15 AM 74.7°F23.7°C 71.9°F22.2°C 91% 10.4 mph SSW16.7 kmh SSW 5.8 mph9.3 kmh 29.85 in1010.8 mb - 0.00 in0.0 mm 0.00 in0.0 mm
12:10 AM 74.8°F23.8°C 72.0°F22.2°C 91% 10.4 mph SSW16.7 kmh SSW 5.8 mph9.3 kmh 29.85 in1010.8 mb - 0.00 in0.0 mm 0.00 in0.0 mm
12:00 AM 74.8°F23.8°C 72.0°F22.2°C 91% 11.5 mph SSW18.5 kmh SSW 4.6 mph7.4 kmh 29.85 in1010.8 mb - 0.00 in0.0 mm 0.00 in0.0 mm